Data for 04/12/2007

Time Sea-Level Adjusted Pressure Absolute Pressure Temperature Relative Humidity Dew Point   
(mb) (inHg) (mb) (inHg) (C) (F) (%) (C) (F)
00:05 1011 29.85 840 24.81 -1.2 29.9 84 -3.5 25.6
00:10 1011 29.85 840 24.81 -1.2 29.8 83 -3.7 25.4
00:15 1011 29.85 840 24.81 -1.1 30 82 -3.7 25.3
00:20 1011 29.85 840 24.81 -1.2 29.9 82 -3.9 24.9
00:25 1011 29.85 840 24.81 -1.2 29.9 81 -3.9 24.9
00:30 1011 29.85 840 24.81 -1.1 30 81 -4 24.9
00:35 1011 29.85 840 24.81 -1.1 29.9 81 -4.1 24.7
00:40 1011 29.85 840 24.81 -1.1 30 80 -4.2 24.4
00:45 1011 29.85 840 24.81 -1.1 30 80 -4.2 24.5
00:50 1011 29.85 840 24.81 -1.2 29.9 80 -4.1 24.5
00:55 1011 29.85 840 24.81 -1.2 29.8 80 -4.3 24.3
01:00 1011 29.85 840 24.81 -1.3 29.8 80 -4.2 24.4
01:05 1011 29.85 840 24.81 -1.3 29.6 80 -4.3 24.3
01:10 1011 29.85 840 24.81 -1.4 29.5 80 -4.3 24.2
01:15 1011 29.85 840 24.81 -1.4 29.4 81 -4.3 24.2
01:20 1011 29.85 840 24.81 -1.4 29.5 80 -4.3 24.2
01:25 1011 29.85 840 24.81 -1.5 29.3 80 -4.4 24
01:30 1011 29.85 840 24.81 -1.5 29.3 81 -4.4 24.1
01:35 1011 29.85 840 24.81 -1.6 29.2 82 -4.2 24.4
01:40 1011 29.85 840 24.81 -1.7 29 82 -4.3 24.3
01:45 1011 29.85 840 24.81 -1.7 29 82 -4.3 24.2
01:50 1011 29.85 840 24.81 -1.7 29 82 -4.3 24.3
01:55 1011 29.85 840 24.81 -1.7 29 82 -4.3 24.2
02:00 1011 29.85 840 24.81 -1.7 29 82 -4.3 24.2
02:05 1011 29.85 840 24.81 -1.7 28.9 82 -4.3 24.2
02:10 1011 29.85 840 24.81 -1.7 28.9 82 -4.3 24.2
02:15 1011 29.85 840 24.81 -1.8 28.8 82 -4.4 24.1
02:20 1011 29.85 840 24.81 -1.8 28.8 83 -4.4 24.1
02:25 1011 29.85 840 24.81 -1.9 28.7 83 -4.4 24
02:30 1011 29.85 840 24.81 -1.9 28.5 83 -4.5 24
02:35 1011 29.85 840 24.81 -2 28.4 83 -4.5 24
02:40 1011 29.85 840 24.81 -2.1 28.3 83 -4.5 23.9
02:45 1011 29.85 840 24.81 -2 28.4 83 -4.5 24
02:50 1011 29.85 840 24.81 -2 28.3 83 -4.6 23.7
02:55 1011 29.85 840 24.81 -2.1 28.2 83 -4.6 23.7
03:00 1011 29.85 840 24.81 -2.1 28.2 83 -4.7 23.6
03:05 1011 29.85 840 24.81 -2.2 28.1 83 -4.7 23.6
03:10 1011 29.85 840 24.81 -2.2 28.1 83 -4.7 23.6
03:15 1011 29.85 840 24.81 -2.2 28 83 -4.7 23.5
03:20 1011 29.85 840 24.81 -2.2 28 83 -4.7 23.6
03:25 1011 29.85 840 24.81 -2.2 28 84 -4.6 23.7
03:30 1011 29.85 840 24.81 -2.2 28 84 -4.6 23.8
03:35 1011 29.85 840 24.81 -2.2 28 84 -4.6 23.8
03:40 1011 29.85 840 24.81 -2.2 28 84 -4.5 23.8
03:45 1011 29.85 840 24.81 -2.2 28 84 -4.6 23.7
03:50 1011 29.85 840 24.81 -2.2 28.1 84 -4.6 23.8
03:55 1011 29.85 840 24.81 -2.2 28 84 -4.5 23.8
04:00 1011 29.85 840 24.81 -2.2 28 84 -4.6 23.7
04:05 1011 29.85 840 24.81 -2.2 28 84 -4.6 23.7
04:10 1011 29.85 840 24.81 -2.2 28 84 -4.6 23.7
04:15 1011 29.85 840 24.81 -2.2 28 84 -4.6 23.7
04:20 1011 29.85 840 24.81 -2.2 28 84 -4.5 23.8
04:25 1011 29.85 840 24.81 -2.2 28.1 84 -4.5 23.9
04:30 1011 29.85 840 24.81 -2.1 28.1 84 -4.5 23.8
04:35 1011 29.85 840 24.81 -2.2 28.1 84 -4.6 23.8
04:40 1011 29.85 840 24.81 -2.2 28 84 -4.5 23.9
04:45 1011 29.85 840 24.81 -2.3 27.9 84 -4.6 23.8
04:50 1011 29.85 840 24.81 -2.3 27.9 85 -4.4 24
04:55 1011 29.85 840 24.81 -2.3 27.9 85 -4.5 24
05:00 1011 29.85 840 24.81 -2.3 27.8 85 -4.5 23.9
05:05 1011 29.85 840 24.81 -2.3 27.8 86 -4.4 24.1
05:10 1011 29.85 840 24.81 -2.3 27.8 86 -4.3 24.2
05:15 1011 29.85 840 24.81 -2.3 27.9 86 -4.3 24.3
05:20 1011 29.85 840 24.81 -2.3 27.9 86 -4.3 24.2
05:25 1011 29.85 840 24.81 -2.3 27.9 86 -4.4 24.1
05:30 1011 29.85 840 24.81 -2.3 27.8 86 -4.3 24.2
05:35 1011 29.85 840 24.81 -2.4 27.7 86 -4.4 24
05:40 1011 29.85 840 24.81 -2.4 27.8 86 -4.4 24
05:45 1011 29.85 840 24.81 -2.4 27.6 86 -4.5 23.9
05:50 1011 29.85 840 24.81 -2.5 27.6 86 -4.5 23.9
05:55 1011 29.85 840 24.81 -2.5 27.6 86 -4.4 24
06:00 1011 29.85 840 24.81 -2.5 27.5 87 -4.4 24
06:05 1011 29.85 840 24.81 -2.5 27.5 86 -4.5 23.9
06:10 1011 29.85 840 24.81 -2.5 27.5 86 -4.5 23.9
06:15 1011 29.85 840 24.81 -2.5 27.4 86 -4.6 23.8
06:20 1011 29.85 840 24.81 -2.6 27.3 86 -4.7 23.5
06:25 1011 29.85 840 24.81 -2.7 27.2 85 -4.8 23.3
06:30 1011 29.85 840 24.81 -2.6 27.3 85 -4.8 23.3
06:35 1011 29.85 840 24.81 -2.6 27.3 84 -4.9 23.1
06:40 1011 29.85 840 24.81 -2.6 27.3 84 -5 23
06:45 1011 29.85 840 24.81 -2.6 27.3 84 -5 23
06:50 1011 29.85 841 24.83 -2.6 27.3 85 -4.8 23.3
06:55 1011 29.85 841 24.83 -2.6 27.2 85 -4.8 23.3
07:00 1011 29.85 841 24.83 -2.6 27.2 85 -4.9 23.2
07:05 1011 29.85 841 24.83 -2.6 27.3 83 -5.1 22.9
07:10 1011 29.85 841 24.83 -2.5 27.5 83 -5.1 22.8
07:15 1011 29.85 841 24.83 -2.5 27.6 83 -5 23
07:20 1012 29.88 841 24.83 -2.5 27.5 83 -5 23
07:25 1012 29.88 841 24.83 -2.4 27.6 84 -4.8 23.3
07:30 1012 29.88 841 24.83 -2.4 27.8 83 -4.8 23.3
07:35 1012 29.88 841 24.83 -2.3 27.9 83 -4.9 23.2
07:40 1012 29.88 841 24.83 -2.2 28.1 82 -4.9 23.3
07:45 1012 29.88 841 24.83 -2.1 28.2 81 -4.9 23.1
07:50 1012 29.88 841 24.83 -2 28.4 80 -5 23
07:55 1012 29.88 841 24.83 -1.8 28.8 79 -4.9 23.2
08:00 1012 29.88 841 24.83 -1.6 29.2 79 -4.8 23.4
08:05 1012 29.88 841 24.83 -1.4 29.4 79 -4.6 23.7
08:10 1012 29.88 841 24.83 -1.2 29.9 78 -4.5 23.9
08:15 1012 29.88 841 24.83 -1.1 30.1 78 -4.5 23.9
08:20 1012 29.88 841 24.83 -1 30.1 78 -4.4 24.1
08:25 1012 29.88 842 24.86 -1 30.2 78 -4.3 24.2
08:30 1012 29.88 842 24.86 -1.1 30 78 -4.5 24
08:35 1012 29.88 842 24.86 -1 30.2 77 -4.6 23.7
08:40 1013 29.91 842 24.86 -1 30.2 77 -4.6 23.8
08:45 1013 29.91 842 24.86 -0.6 30.8 74 -4.7 23.6
08:50 1013 29.91 842 24.86 -0.5 31.1 72 -4.9 23.3
08:55 1013 29.91 842 24.86 -0.3 31.5 71 -4.9 23.2
09:00 1013 29.91 842 24.86 -0.1 31.9 71 -4.7 23.5
09:05 1013 29.91 842 24.86 0.1 32.2 70 -4.7 23.5
09:10 1013 29.91 842 24.86 -0.2 31.7 71 -4.8 23.3
09:15 1013 29.91 842 24.86 -0.2 31.7 71 -4.8 23.3
09:20 1013 29.91 842 24.86 0.1 32.1 71 -4.6 23.8
09:25 1013 29.91 842 24.86 -0.1 31.8 72 -4.6 23.7
09:30 1013 29.91 842 24.86 0 32 69 -5 23
09:35 1013 29.91 842 24.86 0.4 32.8 68 -4.9 23.3
09:40 1013 29.91 842 24.86 0.6 33.2 67 -4.9 23.2
09:45 1013 29.91 842 24.86 0.7 33.2 66 -4.9 23.1
09:50 1013 29.91 842 24.86 0.9 33.7 64 -5.1 22.8
09:55 1013 29.91 842 24.86 1.4 34.5 61 -5.2 22.6
10:00 1013 29.91 842 24.86 1.4 34.5 64 -4.6 23.7
10:05 1013 29.91 842 24.86 1.3 34.3 62 -5.2 22.7
10:10 1013 29.91 842 24.86 2.5 36.5 57 -5.2 22.7
10:15 1013 29.91 842 24.86 2.2 36 63 -4.1 24.7
10:20 1013 29.91 842 24.86 0.6 33.1 68 -4.5 23.8
10:25 1013 29.91 842 24.86 1.2 34.1 64 -4.8 23.4
10:30 1013 29.91 842 24.86 2.1 35.8 60 -4.8 23.3
10:35 1013 29.91 842 24.86 2.3 36.1 63 -4 24.8
10:40 1013 29.91 842 24.86 1.2 34.2 66 -4.3 24.2
10:45 1013 29.91 842 24.86 1.6 34.9 64 -4.5 23.9
10:50 1013 29.91 843 24.89 2.7 36.9 59 -4.5 23.9
10:55 1013 29.91 843 24.89 3.1 37.6 59 -4 24.8
11:00 1013 29.91 843 24.89 2.5 36.5 61 -4.2 24.5
11:05 1013 29.91 843 24.89 2.3 36.1 61 -4.6 23.8
11:10 1013 29.91 843 24.89 2.8 37.1 59 -4.4 24.1
11:15 1013 29.91 843 24.89 4.1 39.3 53 -4.6 23.7
11:20 1013 29.91 843 24.89 4.4 39.9 56 -3.6 25.4
11:25 1013 29.91 843 24.89 4.5 40.2 53 -4.3 24.2
11:30 1013 29.91 843 24.89 4.7 40.5 53 -4.1 24.7
11:35 1013 29.91 843 24.89 5.4 41.7 51 -4 24.7
11:40 1013 29.91 843 24.89 6 42.8 50 -3.5 25.7
11:45 1014 29.94 843 24.89 4.6 40.3 56 -3.3 26.1
11:50 1013 29.91 843 24.89 3.7 38.7 55 -4.5 23.9
11:55 1014 29.94 843 24.89 4.7 40.5 50 -4.7 23.6
12:00 1014 29.94 843 24.89 5.8 42.4 48 -4.3 24.3
12:05 1014 29.94 843 24.89 6.1 43.1 50 -3.6 25.5
12:10 1014 29.94 843 24.89 5.8 42.4 50 -3.7 25.3
12:15 1013 29.91 843 24.89 5 41 54 -3.4 25.9
12:20 1013 29.91 843 24.89 4.7 40.4 54 -3.8 25.1
12:25 1013 29.91 843 24.89 5.4 41.7 49 -4.6 23.8
12:30 1013 29.91 843 24.89 6.3 43.4 47 -4.2 24.4
12:35 1013 29.91 843 24.89 6.5 43.7 47 -3.9 25
12:40 1013 29.91 843 24.89 7.1 44.9 45 -4 24.7
12:45 1013 29.91 843 24.89 7.6 45.8 45 -3.6 25.5
12:50 1013 29.91 843 24.89 7.4 45.4 44 -4 24.8
12:55 1013 29.91 843 24.89 7.3 45.1 44 -4.2 24.5
13:00 1013 29.91 843 24.89 7.6 45.7 42 -4.6 23.8
13:05 1013 29.91 842 24.86 7.5 45.4 42 -4.5 24
13:10 1013 29.91 842 24.86 8 46.3 42 -4.1 24.6
13:15 1013 29.91 842 24.86 7.7 45.8 43 -4.2 24.4
13:20 1013 29.91 842 24.86 6.1 43.1 46 -4.7 23.5
13:25 1013 29.91 842 24.86 5.6 42 44 -5.7 21.7
13:30 1013 29.91 842 24.86 7.3 45.2 39 -5.6 22
13:35 1013 29.91 842 24.86 7.5 45.5 39 -5.6 21.8
13:40 1013 29.91 842 24.86 7.6 45.8 39 -5.5 22
13:45 1013 29.91 842 24.86 7.8 46.1 36 -6.3 20.7
13:50 1013 29.91 842 24.86 8.7 47.6 36 -5.6 21.8
13:55 1013 29.91 842 24.86 8.9 48 38 -4.6 23.7
14:00 1013 29.91 842 24.86 7.8 46 37 -5.8 21.5
14:05 1013 29.91 842 24.86 7.2 44.9 38 -6.2 20.9
14:10 1013 29.91 842 24.86 8.1 46.6 39 -4.9 23.1
14:15 1013 29.91 842 24.86 8.7 47.7 36 -5.3 22.4
14:20 1013 29.91 842 24.86 8.3 46.9 35 -6.1 21
14:25 1013 29.91 842 24.86 8.5 47.3 31 -7.6 18.3
14:30 1013 29.91 842 24.86 8.6 47.5 34 -6.3 20.6
14:35 1013 29.91 842 24.86 8.7 47.6 31 -7.5 18.5
14:40 1013 29.91 842 24.86 9.5 49 27 -8.7 16.4
14:45 1013 29.91 842 24.86 9.1 48.4 29 -8.2 17.3
14:50 1013 29.91 842 24.86 9.7 49.5 27 -8.6 16.5
14:55 1013 29.91 842 24.86 9.5 49.2 26 -9.2 15.5
15:00 1013 29.91 842 24.86 9.5 49.2 27 -8.4 16.9
15:05 1013 29.91 843 24.89 10.5 51 24 -9.2 15.5
15:10 1013 29.91 843 24.89 10.3 50.5 27 -7.9 17.8
15:15 1013 29.91 843 24.89 10 49.9 27 -8.4 16.9
15:20 1013 29.91 842 24.86 9.1 48.3 27 -8.7 16.3
15:25 1013 29.91 843 24.89 8.7 47.6 29 -8.5 16.7
15:30 1013 29.91 843 24.89 8.4 47.1 29 -8.5 16.8
15:35 1013 29.91 843 24.89 8.9 48 33 -6.4 20.5
15:40 1013 29.91 843 24.89 8 46.3 35 -6.5 20.3
15:45 1013 29.91 843 24.89 6.6 44 40 -5.9 21.5
15:50 1013 29.91 843 24.89 7 44.7 37 -6.6 20.2
15:55 1014 29.94 843 24.89 7.6 45.6 38 -6 21.2
16:00 1014 29.94 843 24.89 7.6 45.7 36 -6.7 20
16:05 1014 29.94 843 24.89 7.8 46 37 -6.1 21
16:10 1014 29.94 843 24.89 7.4 45.4 36 -6.6 20.1
16:15 1014 29.94 843 24.89 8.2 46.7 32 -7.5 18.5
16:20 1014 29.94 843 24.89 8.2 46.8 34 -6.7 20
16:25 1014 29.94 843 24.89 7.6 45.7 37 -6.3 20.7
16:30 1014 29.94 843 24.89 6.8 44.3 40 -5.7 21.7
16:35 1014 29.94 843 24.89 6.6 43.9 38 -6.8 19.8
16:40 1014 29.94 843 24.89 6.7 44 38 -6.5 20.2
16:45 1014 29.94 843 24.89 6.7 44 36 -7.3 18.8
16:50 1014 29.94 843 24.89 6.6 43.8 38 -6.9 19.6
16:55 1014 29.94 843 24.89 7.2 44.9 35 -7.1 19.2
17:00 1014 29.94 843 24.89 7.9 46.2 34 -7.2 19.1
17:05 1014 29.94 843 24.89 8.4 47 33 -7.2 19.1
17:10 1014 29.94 843 24.89 7.8 46.1 33 -7.3 18.9
17:15 1014 29.94 843 24.89 7.3 45.1 35 -7.3 18.9
17:20 1014 29.94 843 24.89 8 46.3 33 -7.4 18.6
17:25 1014 29.94 843 24.89 7.9 46.1 33 -7.2 19
17:30 1014 29.94 843 24.89 7.4 45.3 34 -7.4 18.6
17:35 1014 29.94 843 24.89 7.5 45.5 31 -8.4 17
17:40 1014 29.94 843 24.89 6.9 44.5 33 -8.2 17.2
17:45 1014 29.94 844 24.92 6.5 43.8 34 -8.2 17.3
17:50 1014 29.94 844 24.92 6.5 43.7 36 -7.5 18.5
17:55 1015 29.97 844 24.92 6.7 44 35 -7.6 18.3
18:00 1015 29.97 844 24.92 6.4 43.4 35 -7.9 17.8
18:05 1015 29.97 844 24.92 6.2 43.2 37 -7.3 18.8
18:10 1015 29.97 844 24.92 5.8 42.5 40 -6.7 20
18:15 1015 29.97 844 24.92 5.6 42.2 43 -5.9 21.4
18:20 1015 29.97 844 24.92 5.8 42.5 41 -6.3 20.7
18:25 1015 29.97 844 24.92 6.1 43 40 -6.5 20.3
18:30 1015 29.97 844 24.92 6 42.7 42 -5.9 21.3
18:35 1015 29.97 844 24.92 5.7 42.2 42 -6.1 21
18:40 1015 29.97 844 24.92 5.9 42.6 41 -6.3 20.6
18:45 1015 29.97 844 24.92 5.7 42.3 41 -6.4 20.4
18:50 1015 29.97 845 24.95 5.7 42.2 41 -6.5 20.3
18:55 1015 29.97 845 24.95 5.7 42.3 39 -7 19.3
19:00 1015 29.97 845 24.95 5.7 42.2 40 -7 19.4
19:05 1016 30 845 24.95 5.5 42 41 -6.8 19.7
19:10 1016 30 845 24.95 5.5 41.9 41 -6.6 20.1
19:15 1016 30 845 24.95 5.5 41.9 40 -6.9 19.5
19:20 1016 30 845 24.95 5.5 41.9 38 -7.7 18.1
19:25 1016 30 845 24.95 5.5 41.9 37 -8.1 17.4
19:30 1016 30 845 24.95 5.5 41.9 36 -8.3 17.1
19:35 1016 30 845 24.95 5.5 41.9 37 -8.1 17.4
19:40 1016 30 845 24.95 5.2 41.4 39 -7.7 18.1
19:45 1016 30 845 24.95 5.2 41.4 38 -7.9 17.8
19:50 1016 30 845 24.95 5.2 41.4 38 -7.9 17.9
19:55 1016 30 845 24.95 5.2 41.4 39 -7.7 18.1
20:00 1016 30 845 24.95 5.3 41.5 39 -7.5 18.4
20:05 1016 30 845 24.95 5.1 41.2 39 -7.6 18.4
20:10 1016 30 845 24.95 5 41 40 -7.6 18.4
20:15 1016 30 845 24.95 4.8 40.7 41 -7.4 18.7
20:20 1016 30 845 24.95 4.7 40.4 41 -7.4 18.7
20:25 1016 30 845 24.95 4.4 39.9 42 -7.4 18.6
20:30 1016 30 845 24.95 4.2 39.6 43 -7.3 18.9
20:35 1016 30 846 24.98 4.1 39.4 44 -7.1 19.1
20:40 1016 30 846 24.98 4 39.2 45 -7 19.5
20:45 1016 30 846 24.98 3.8 38.8 45 -7.1 19.2
20:50 1017 30.03 846 24.98 3.6 38.6 45 -7.2 19.1
20:55 1017 30.03 846 24.98 3.6 38.5 45 -7.4 18.8
21:00 1017 30.03 846 24.98 3.7 38.7 44 -7.3 18.8
21:05 1017 30.03 846 24.98 3.7 38.6 45 -7.2 19.1
21:10 1017 30.03 846 24.98 3.5 38.4 46 -7.2 19.1
21:15 1017 30.03 846 24.98 3.3 38 46 -7.3 18.9
21:20 1017 30.03 846 24.98 3.2 37.7 48 -6.9 19.6
21:25 1017 30.03 846 24.98 2.6 36.6 53 -6.1 21
21:30 1017 30.03 846 24.98 1.3 34.3 58 -6.1 21.1
21:35 1017 30.03 846 24.98 0.6 33.1 59 -6.5 20.4
21:40 1017 30.03 847 25.01 1 33.8 58 -6.5 20.3
21:45 1017 30.03 847 25.01 1 33.8 59 -6.2 20.9
21:50 1017 30.03 847 25.01 0.8 33.4 60 -6.2 20.8
21:55 1017 30.03 847 25.01 0.7 33.3 61 -6 21.2
22:00 1018 30.06 847 25.01 0.8 33.4 58 -6.5 20.3
22:05 1018 30.06 847 25.01 1.3 34.3 56 -6.6 20.2
22:10 1018 30.06 847 25.01 1.6 34.8 55 -6.6 20.2
22:15 1018 30.06 847 25.01 1.4 34.6 59 -5.7 21.8
22:20 1018 30.06 847 25.01 0.2 32.4 64 -5.9 21.5
22:25 1018 30.06 847 25.01 0.1 32.2 62 -6.3 20.6
22:30 1018 30.06 847 25.01 0.4 32.7 61 -6.3 20.6
22:35 1018 30.06 847 25.01 0.5 32.8 60 -6.3 20.6
22:40 1018 30.06 847 25.01 0.4 32.8 60 -6.3 20.6
22:45 1018 30.06 847 25.01 0.3 32.6 61 -6.4 20.6
22:50 1018 30.06 847 25.01 0.3 32.5 61 -6.5 20.4
22:55 1018 30.06 847 25.01 0.3 32.6 61 -6.4 20.5
23:00 1018 30.06 847 25.01 0.4 32.6 61 -6.4 20.5
23:05 1018 30.06 847 25.01 0.1 32.2 62 -6.2 20.8
23:10 1018 30.06 847 25.01 -0.3 31.5 64 -6.3 20.7
23:15 1018 30.06 847 25.01 -0.4 31.4 64 -6.3 20.6
23:20 1018 30.06 847 25.01 -0.3 31.4 65 -6 21.1
23:25 1018 30.06 848 25.04 -0.4 31.3 66 -6 21.2
23:30 1018 30.06 848 25.04 -0.3 31.4 65 -6.2 20.9
23:35 1018 30.06 848 25.04 -0.3 31.5 65 -6.1 20.9
23:40 1018 30.06 848 25.04 -0.3 31.4 65 -6.2 20.9
23:45 1018 30.06 848 25.04 -0.6 31 65 -6.3 20.7
23:50 1019 30.09 848 25.04 -0.5 31 64 -6.4 20.4
23:55 1019 30.09 848 25.04 -0.6 31 67 -6 21.2
24:00 1019 30.09 848 25.04 -0.7 30.8 68 -5.9 21.3